createdAt,value
2017-11-19T00:00:50.444Z,0.00
2017-11-19T00:01:50.436Z,0.00
2017-11-19T00:02:50.424Z,0.00
2017-11-19T00:03:50.418Z,0.00
2017-11-19T00:04:50.414Z,0.00
2017-11-19T00:05:50.403Z,0.00
2017-11-19T00:06:50.400Z,0.00
2017-11-19T00:07:50.398Z,0.00
2017-11-19T00:08:50.385Z,0.00
2017-11-19T00:09:50.378Z,0.00
2017-11-19T00:10:50.369Z,0.00
2017-11-19T00:11:50.364Z,0.00
2017-11-19T00:12:50.357Z,0.00
2017-11-19T00:13:50.349Z,0.00
2017-11-19T00:14:50.338Z,0.00
2017-11-19T00:15:50.330Z,0.00
2017-11-19T00:16:50.324Z,0.00
2017-11-19T00:17:50.316Z,0.00
2017-11-19T00:18:50.309Z,0.00
2017-11-19T00:19:50.302Z,0.00
2017-11-19T00:20:50.296Z,0.00
2017-11-19T00:21:50.315Z,0.00
2017-11-19T00:22:50.285Z,0.00
2017-11-19T00:23:50.278Z,0.00
2017-11-19T00:24:50.271Z,0.00
2017-11-19T00:25:50.260Z,0.00
2017-11-19T00:26:50.255Z,0.00
2017-11-19T00:27:50.247Z,0.00
2017-11-19T00:28:50.242Z,0.00
2017-11-19T00:29:50.235Z,0.00
2017-11-19T00:30:50.221Z,0.00
2017-11-19T00:31:50.214Z,0.00
2017-11-19T00:32:50.208Z,0.00
2017-11-19T00:33:50.201Z,0.00
2017-11-19T00:34:50.193Z,0.00
2017-11-19T00:35:50.186Z,0.00
2017-11-19T00:36:50.179Z,0.00
2017-11-19T00:37:50.170Z,0.00
2017-11-19T00:38:50.168Z,0.00
2017-11-19T00:39:50.160Z,0.00
2017-11-19T00:40:50.162Z,0.00
2017-11-19T00:41:50.146Z,0.00
2017-11-19T00:42:50.140Z,0.00
2017-11-19T00:43:50.133Z,0.00
2017-11-19T00:44:50.124Z,0.00
2017-11-19T00:45:50.116Z,0.00
2017-11-19T00:46:50.105Z,0.00
2017-11-19T00:47:50.100Z,0.00
2017-11-19T00:48:50.091Z,0.00
2017-11-19T00:49:50.083Z,0.00
2017-11-19T00:50:50.076Z,0.00
2017-11-19T00:51:50.069Z,0.00
2017-11-19T00:52:50.063Z,0.00
2017-11-19T00:53:50.056Z,0.00
2017-11-19T00:54:50.052Z,0.00
2017-11-19T00:55:50.044Z,0.00
2017-11-19T00:56:50.040Z,0.00
2017-11-19T00:57:50.031Z,0.00
2017-11-19T00:58:50.023Z,0.00
2017-11-19T00:59:50.017Z,0.00
2017-11-19T01:00:50.018Z,0.00
2017-11-19T01:01:50.002Z,0.00
2017-11-19T01:02:49.990Z,0.00
2017-11-19T01:03:49.986Z,0.00
2017-11-19T01:04:49.975Z,0.00
2017-11-19T01:05:49.967Z,0.00
2017-11-19T01:06:49.966Z,0.00
2017-11-19T01:07:49.958Z,0.00
2017-11-19T01:08:49.951Z,0.00
2017-11-19T01:09:49.942Z,0.00
2017-11-19T01:10:49.932Z,0.00
2017-11-19T01:11:49.924Z,0.00
2017-11-19T01:12:49.916Z,0.00
2017-11-19T01:13:49.910Z,0.00
2017-11-19T01:14:49.902Z,0.00
2017-11-19T01:15:49.895Z,0.00
2017-11-19T01:16:49.889Z,0.00
2017-11-19T01:17:49.905Z,0.00
2017-11-19T01:18:49.876Z,0.00
2017-11-19T01:19:49.870Z,0.00
2017-11-19T01:20:49.862Z,0.00
2017-11-19T01:21:49.856Z,0.00
2017-11-19T01:22:49.848Z,0.00
2017-11-19T01:23:49.841Z,0.00
2017-11-19T01:24:49.834Z,0.00
2017-11-19T01:25:49.825Z,0.00
2017-11-19T01:26:49.814Z,0.00
2017-11-19T01:27:49.807Z,0.00
2017-11-19T01:28:49.801Z,0.00
2017-11-19T01:29:49.792Z,0.00
2017-11-19T01:30:49.784Z,0.00
2017-11-19T01:31:49.776Z,0.00
2017-11-19T01:32:49.770Z,0.00
2017-11-19T01:33:49.768Z,0.00
2017-11-19T01:34:49.759Z,0.00
2017-11-19T01:35:49.752Z,0.00
2017-11-19T01:36:49.748Z,0.00
2017-11-19T01:37:49.737Z,0.00
2017-11-19T01:38:49.732Z,0.00
2017-11-19T01:39:49.722Z,0.00
2017-11-19T01:40:49.716Z,0.00
2017-11-19T01:41:49.707Z,0.00
2017-11-19T01:42:49.695Z,0.00
2017-11-19T01:43:49.696Z,0.00
2017-11-19T01:44:49.690Z,0.00
2017-11-19T01:45:49.676Z,0.00
2017-11-19T01:46:49.666Z,0.00
2017-11-19T01:47:49.660Z,0.00
2017-11-19T01:48:49.652Z,0.00
2017-11-19T01:49:49.643Z,0.00
2017-11-19T01:50:49.642Z,0.00
2017-11-19T01:51:49.633Z,0.00
2017-11-19T01:52:49.626Z,0.00
2017-11-19T01:53:49.618Z,0.00
2017-11-19T01:54:49.611Z,0.00
2017-11-19T01:55:49.605Z,0.00
2017-11-19T01:56:49.598Z,0.00
2017-11-19T01:57:49.588Z,0.00
2017-11-19T01:58:49.578Z,0.00
2017-11-19T01:59:49.570Z,0.00
2017-11-19T02:00:49.562Z,0.00
2017-11-19T02:01:49.563Z,0.00
2017-11-19T02:02:49.565Z,0.00
2017-11-19T02:03:49.541Z,0.00
2017-11-19T02:04:49.533Z,0.00
2017-11-19T02:05:49.530Z,0.00
2017-11-19T02:06:49.522Z,0.00
2017-11-19T02:07:49.513Z,0.00
2017-11-19T02:08:49.506Z,0.00
2017-11-19T02:09:49.499Z,0.00
2017-11-19T02:10:49.488Z,0.00
2017-11-19T02:11:49.481Z,0.00
2017-11-19T02:12:49.475Z,0.00
2017-11-19T02:13:49.464Z,0.00
2017-11-19T02:14:49.466Z,0.00
2017-11-19T02:15:49.455Z,0.00
2017-11-19T02:16:49.447Z,0.00
2017-11-19T02:17:49.439Z,0.00
2017-11-19T02:18:49.431Z,0.00
2017-11-19T02:19:49.424Z,0.00
2017-11-19T02:20:49.422Z,0.00
2017-11-19T02:21:49.408Z,0.00
2017-11-19T02:22:49.398Z,0.00
2017-11-19T02:23:49.391Z,0.00
2017-11-19T02:24:49.383Z,0.00
2017-11-19T02:25:49.376Z,0.00
2017-11-19T02:26:49.368Z,0.00
2017-11-19T02:27:49.363Z,0.00
2017-11-19T02:28:49.354Z,0.00
2017-11-19T02:29:49.345Z,0.00
2017-11-19T02:30:49.344Z,0.00
2017-11-19T02:31:49.339Z,0.00
2017-11-19T02:32:49.330Z,0.00
2017-11-19T02:33:49.318Z,0.00
2017-11-19T02:34:49.313Z,0.00
2017-11-19T02:35:49.305Z,0.00
2017-11-19T02:36:49.297Z,0.00
2017-11-19T02:37:49.291Z,0.00
2017-11-19T02:38:49.277Z,0.00
2017-11-19T02:39:49.279Z,0.00
2017-11-19T02:40:49.263Z,0.00
2017-11-19T02:41:49.254Z,0.00
2017-11-19T02:42:49.249Z,0.00
2017-11-19T02:43:49.242Z,0.00
2017-11-19T02:44:49.232Z,0.00
2017-11-19T02:45:49.225Z,0.00
2017-11-19T02:46:49.220Z,0.00
2017-11-19T02:47:49.212Z,0.00
2017-11-19T02:48:49.217Z,0.00
2017-11-19T02:49:49.195Z,0.00
2017-11-19T02:50:49.191Z,0.00
2017-11-19T02:51:49.182Z,0.00
2017-11-19T02:52:49.175Z,0.00
2017-11-19T02:53:49.171Z,0.00
2017-11-19T02:54:49.156Z,0.00
2017-11-19T02:55:49.147Z,0.00
2017-11-19T02:56:49.140Z,0.00
2017-11-19T02:57:49.130Z,0.00
2017-11-19T02:58:49.123Z,0.00
2017-11-19T02:59:49.116Z,0.00
2017-11-19T03:00:49.107Z,0.00
2017-11-19T03:01:49.100Z,0.00
2017-11-19T03:02:49.096Z,0.00
2017-11-19T03:03:49.088Z,0.00
2017-11-19T03:04:49.082Z,0.00
2017-11-19T03:05:49.073Z,0.00
2017-11-19T03:06:49.065Z,0.00
2017-11-19T03:07:49.057Z,0.00
2017-11-19T03:08:49.051Z,0.00
2017-11-19T03:09:49.040Z,0.00
2017-11-19T03:10:49.030Z,0.00
2017-11-19T03:11:49.022Z,0.00
2017-11-19T03:12:49.013Z,0.00
2017-11-19T03:13:49.005Z,0.00
2017-11-19T03:14:49.002Z,0.00
2017-11-19T03:15:48.995Z,0.00
2017-11-19T03:16:48.985Z,0.00
2017-11-19T03:17:48.977Z,0.00
2017-11-19T03:18:48.965Z,0.00
2017-11-19T03:19:48.957Z,0.00
2017-11-19T03:20:48.949Z,0.00
2017-11-19T03:21:48.940Z,0.00
2017-11-19T03:22:48.932Z,0.00
2017-11-19T03:23:48.923Z,0.00
2017-11-19T03:24:48.916Z,0.00
2017-11-19T03:25:48.905Z,0.00
2017-11-19T03:26:48.901Z,0.00
2017-11-19T03:27:48.896Z,0.00
2017-11-19T03:28:48.890Z,0.00
2017-11-19T03:29:48.878Z,0.00
2017-11-19T03:30:48.873Z,0.00
2017-11-19T03:31:48.862Z,0.00
2017-11-19T03:32:48.856Z,0.00
2017-11-19T03:33:48.844Z,0.00
2017-11-19T03:34:48.831Z,0.00
2017-11-19T03:35:48.823Z,0.00
2017-11-19T03:36:48.813Z,0.00
2017-11-19T03:37:48.805Z,0.00
2017-11-19T03:38:48.802Z,0.00
2017-11-19T03:39:48.788Z,0.00
2017-11-19T03:40:48.780Z,0.00
2017-11-19T03:41:48.769Z,0.00
2017-11-19T03:42:48.766Z,0.00
2017-11-19T03:43:48.756Z,0.00
2017-11-19T03:44:48.749Z,0.00
2017-11-19T03:45:48.738Z,0.00
2017-11-19T03:46:48.730Z,0.00
2017-11-19T03:47:48.721Z,0.00
2017-11-19T03:48:48.713Z,0.00
2017-11-19T03:49:48.705Z,0.00
2017-11-19T03:50:48.692Z,0.00
2017-11-19T03:51:48.683Z,0.00
2017-11-19T03:52:48.674Z,0.00
2017-11-19T03:53:48.665Z,0.00
2017-11-19T03:54:48.654Z,0.00
2017-11-19T03:55:48.647Z,0.00
2017-11-19T03:56:48.638Z,0.00
2017-11-19T03:57:48.628Z,0.00
2017-11-19T03:58:48.631Z,0.00
2017-11-19T03:59:48.615Z,0.00
2017-11-19T04:00:48.605Z,0.00
2017-11-19T04:01:48.595Z,0.00
2017-11-19T04:02:48.587Z,0.00
2017-11-19T04:03:48.579Z,0.00
2017-11-19T04:04:48.572Z,0.00
2017-11-19T04:05:48.560Z,0.00
2017-11-19T04:06:48.548Z,0.00
2017-11-19T04:07:48.537Z,0.00
2017-11-19T04:08:48.530Z,0.00
2017-11-19T04:09:48.519Z,0.00
2017-11-19T04:10:48.511Z,0.00
2017-11-19T04:11:48.502Z,0.00
2017-11-19T04:12:48.506Z,0.00
2017-11-19T04:13:48.483Z,0.00
2017-11-19T04:14:48.478Z,0.00
2017-11-19T04:15:48.471Z,0.00
2017-11-19T04:16:48.461Z,0.00
2017-11-19T04:17:48.451Z,0.00
2017-11-19T04:18:48.453Z,0.00
2017-11-19T04:19:48.434Z,0.00
2017-11-19T04:20:48.425Z,0.00
2017-11-19T04:21:48.414Z,0.00
2017-11-19T04:22:48.402Z,0.00
2017-11-19T04:23:48.393Z,0.00
2017-11-19T04:24:48.384Z,0.00
2017-11-19T04:25:48.372Z,0.00
2017-11-19T04:26:48.366Z,0.00
2017-11-19T04:27:48.355Z,0.00
2017-11-19T04:28:48.348Z,0.00
2017-11-19T04:29:48.337Z,0.00
2017-11-19T04:30:48.333Z,0.00
2017-11-19T04:31:48.323Z,0.00
2017-11-19T04:32:48.314Z,0.00
2017-11-19T04:33:48.304Z,0.00
2017-11-19T04:34:48.302Z,0.00
2017-11-19T04:35:48.286Z,0.00
2017-11-19T04:36:48.280Z,0.00
2017-11-19T04:37:48.265Z,0.00
2017-11-19T04:38:48.254Z,0.00
2017-11-19T04:39:48.244Z,0.00
2017-11-19T04:40:48.235Z,0.00
2017-11-19T04:41:48.225Z,0.00
2017-11-19T04:42:48.216Z,0.00
2017-11-19T04:43:48.207Z,0.00
2017-11-19T04:44:48.199Z,0.00
2017-11-19T04:45:48.189Z,0.00
2017-11-19T04:46:48.184Z,0.00
2017-11-19T04:47:48.173Z,0.00
2017-11-19T04:48:48.165Z,0.00
2017-11-19T04:49:48.159Z,0.00
2017-11-19T04:50:48.148Z,0.00
2017-11-19T04:51:48.137Z,0.00
2017-11-19T04:52:48.128Z,0.00
2017-11-19T04:53:48.119Z,0.00
2017-11-19T04:54:48.104Z,0.00
2017-11-19T04:55:48.096Z,0.00
2017-11-19T04:56:48.087Z,0.00
2017-11-19T04:57:48.075Z,0.00
2017-11-19T04:58:48.072Z,0.00
2017-11-19T04:59:48.059Z,0.00
2017-11-19T05:00:48.048Z,0.00
2017-11-19T05:01:48.039Z,0.00
2017-11-19T05:02:48.033Z,0.00
2017-11-19T05:03:48.023Z,0.00
2017-11-19T05:04:48.016Z,0.00
2017-11-19T05:05:48.004Z,0.00
2017-11-19T05:06:47.997Z,0.00
2017-11-19T05:07:47.986Z,0.00
2017-11-19T05:08:47.979Z,0.00
2017-11-19T05:09:47.967Z,0.00
2017-11-19T05:10:47.953Z,0.00
2017-11-19T05:11:47.945Z,0.00
2017-11-19T05:12:47.936Z,0.00
2017-11-19T05:13:47.926Z,0.00
2017-11-19T05:14:47.918Z,0.00
2017-11-19T05:15:47.909Z,0.00
2017-11-19T05:16:47.900Z,0.00
2017-11-19T05:17:47.889Z,0.00
2017-11-19T05:18:47.884Z,0.00
2017-11-19T05:19:47.875Z,0.00
2017-11-19T05:20:47.866Z,0.00
2017-11-19T05:21:47.855Z,0.00
2017-11-19T05:22:47.843Z,0.00
2017-11-19T05:23:47.835Z,0.00
2017-11-19T05:24:47.825Z,0.00
2017-11-19T05:25:47.815Z,0.00
2017-11-19T05:26:47.811Z,0.00
2017-11-19T05:27:47.802Z,0.00
2017-11-19T05:28:47.793Z,0.00
2017-11-19T05:29:47.783Z,0.00
2017-11-19T05:30:47.774Z,0.00
2017-11-19T05:31:47.766Z,0.00
2017-11-19T05:32:47.759Z,0.00
2017-11-19T05:33:47.748Z,0.00
2017-11-19T05:34:47.734Z,0.00
2017-11-19T05:35:47.728Z,0.00
2017-11-19T05:36:47.718Z,0.00
2017-11-19T05:37:47.710Z,0.00
2017-11-19T05:38:47.703Z,0.00
2017-11-19T05:39:47.692Z,0.00
2017-11-19T05:40:47.682Z,0.00
2017-11-19T05:41:47.673Z,0.00
2017-11-19T05:42:47.669Z,0.00
2017-11-19T05:43:47.660Z,0.00
2017-11-19T05:44:47.653Z,0.00
2017-11-19T05:45:47.644Z,0.00
2017-11-19T05:46:47.634Z,0.00
2017-11-19T05:47:47.627Z,0.00
2017-11-19T05:48:47.618Z,0.00
2017-11-19T05:49:47.610Z,0.00
2017-11-19T05:50:47.599Z,0.00
2017-11-19T05:51:47.590Z,0.00
2017-11-19T05:52:47.582Z,0.00
2017-11-19T05:53:47.570Z,0.00
2017-11-19T05:54:47.561Z,0.00
2017-11-19T05:55:47.555Z,0.00
2017-11-19T05:56:47.545Z,0.00
2017-11-19T05:57:47.536Z,0.00
2017-11-19T05:58:47.532Z,0.00
2017-11-19T05:59:47.524Z,0.00
2017-11-19T06:00:47.515Z,0.00
2017-11-19T06:01:47.505Z,0.00
2017-11-19T06:02:47.497Z,0.00
2017-11-19T06:03:47.490Z,0.00
2017-11-19T06:04:47.481Z,0.00
2017-11-19T06:05:47.474Z,0.00
2017-11-19T06:06:47.461Z,0.00
2017-11-19T06:07:47.450Z,0.00
2017-11-19T06:08:47.442Z,0.00
2017-11-19T06:09:47.433Z,0.00
2017-11-19T06:10:47.426Z,0.00
2017-11-19T06:11:47.417Z,0.00
2017-11-19T06:12:47.410Z,0.00
2017-11-19T06:13:47.400Z,0.00
2017-11-19T06:14:47.395Z,0.00
2017-11-19T06:15:47.388Z,0.00
2017-11-19T06:16:47.379Z,0.00
2017-11-19T06:17:47.370Z,0.00
2017-11-19T06:18:47.363Z,0.00
2017-11-19T06:19:47.361Z,0.00
2017-11-19T06:20:47.345Z,0.00
2017-11-19T06:21:47.339Z,0.00
2017-11-19T06:22:47.324Z,4.00
2017-11-19T06:23:47.315Z,4.00
2017-11-19T06:24:47.306Z,4.00
2017-11-19T06:25:47.298Z,4.00
2017-11-19T06:26:47.295Z,4.00
2017-11-19T06:27:47.285Z,4.00
2017-11-19T06:28:47.278Z,4.00
2017-11-19T06:29:47.269Z,4.00
2017-11-19T06:30:47.257Z,4.00
2017-11-19T06:31:47.247Z,4.00
2017-11-19T06:32:47.241Z,4.00
2017-11-19T06:33:47.231Z,4.00
2017-11-19T06:34:47.223Z,4.00
2017-11-19T06:35:47.215Z,8.00
2017-11-19T06:36:47.206Z,8.00
2017-11-19T06:37:47.197Z,8.00
2017-11-19T06:38:47.194Z,8.00
2017-11-19T06:39:47.184Z,4.00
2017-11-19T06:40:47.177Z,8.00
2017-11-19T06:41:47.168Z,4.00
2017-11-19T06:42:47.160Z,4.00
2017-11-19T06:43:47.152Z,4.00
2017-11-19T06:44:47.144Z,12.00
2017-11-19T06:45:47.134Z,16.00
2017-11-19T06:46:47.121Z,24.00
2017-11-19T06:47:47.114Z,28.00
2017-11-19T06:48:47.109Z,40.00
2017-11-19T06:49:47.097Z,56.00
2017-11-19T06:50:47.089Z,68.00
2017-11-19T06:51:47.095Z,72.00
2017-11-19T06:52:47.075Z,76.00
2017-11-19T06:53:47.063Z,64.00
2017-11-19T06:54:47.059Z,56.00
2017-11-19T06:55:47.063Z,64.00
2017-11-19T06:56:47.043Z,64.00
2017-11-19T06:57:47.035Z,92.00
2017-11-19T06:58:47.026Z,112.00
2017-11-19T06:59:47.020Z,136.00
2017-11-19T07:00:47.010Z,156.00
2017-11-19T07:01:47.002Z,188.00
2017-11-19T07:02:46.994Z,200.00
2017-11-19T07:03:46.980Z,228.00
2017-11-19T07:04:46.974Z,272.00
2017-11-19T07:05:46.964Z,316.00
2017-11-19T07:06:46.955Z,360.00
2017-11-19T07:07:46.955Z,404.00
2017-11-19T07:08:46.940Z,448.00
2017-11-19T07:09:46.932Z,464.00
2017-11-19T07:10:46.926Z,464.00
2017-11-19T07:11:46.920Z,464.00
2017-11-19T07:12:46.910Z,484.00
2017-11-19T07:13:46.902Z,520.00
2017-11-19T07:14:46.894Z,572.00
2017-11-19T07:15:46.886Z,604.00
2017-11-19T07:16:46.877Z,660.00
2017-11-19T07:17:46.869Z,664.00
2017-11-19T07:18:46.856Z,676.00
2017-11-19T07:19:46.852Z,708.00
2017-11-19T07:20:46.840Z,744.00
2017-11-19T07:21:46.831Z,784.00
2017-11-19T07:22:46.824Z,824.00
2017-11-19T07:23:46.814Z,868.00
2017-11-19T07:24:46.806Z,904.00
2017-11-19T07:25:46.795Z,936.00
2017-11-19T07:26:46.793Z,1004.00
2017-11-19T07:27:46.785Z,1092.00
2017-11-19T07:28:46.776Z,1068.00
2017-11-19T07:29:46.767Z,1024.00
2017-11-19T07:30:46.754Z,996.00
2017-11-19T07:31:46.746Z,1048.00
2017-11-19T07:32:46.737Z,1176.00
2017-11-19T07:33:46.728Z,1424.00
2017-11-19T07:34:46.732Z,1580.00
2017-11-19T07:35:46.714Z,1588.00
2017-11-19T07:36:46.707Z,1640.00
2017-11-19T07:37:46.696Z,1748.00
2017-11-19T07:38:46.689Z,1888.00
2017-11-19T07:39:46.680Z,1612.00
2017-11-19T07:40:46.674Z,1332.00
2017-11-19T07:41:46.663Z,1252.00
2017-11-19T07:42:46.667Z,1560.00
2017-11-19T07:43:46.643Z,1788.00
2017-11-19T07:44:46.636Z,2096.00
2017-11-19T07:45:46.625Z,1944.00
2017-11-19T07:46:46.618Z,1708.00
2017-11-19T07:47:46.611Z,1840.00
2017-11-19T07:48:46.600Z,2292.00
2017-11-19T07:49:46.592Z,2264.00
2017-11-19T07:50:46.588Z,2048.00
2017-11-19T07:51:46.580Z,2544.00
2017-11-19T07:52:46.573Z,2568.00
2017-11-19T07:53:46.563Z,2792.00
2017-11-19T07:54:46.555Z,3804.00
2017-11-19T07:55:46.546Z,2816.00
2017-11-19T07:56:46.539Z,1960.00
2017-11-19T07:57:46.529Z,1612.00
2017-11-19T07:58:46.518Z,1776.00
2017-11-19T07:59:46.511Z,1992.00
2017-11-19T08:00:46.503Z,2132.00
2017-11-19T08:01:46.501Z,2028.00
2017-11-19T08:02:46.487Z,2232.00
2017-11-19T08:03:46.477Z,1752.00
2017-11-19T08:04:46.472Z,1520.00
2017-11-19T08:05:46.461Z,1584.00
2017-11-19T08:06:46.458Z,1632.00
2017-11-19T08:07:46.451Z,1844.00
2017-11-19T08:08:46.444Z,2412.00
2017-11-19T08:09:46.435Z,3260.00
2017-11-19T08:10:46.428Z,3816.00
2017-11-19T08:11:46.420Z,4104.00
2017-11-19T08:12:46.412Z,3536.00
2017-11-19T08:13:46.403Z,2928.00
2017-11-19T08:14:46.392Z,3280.00
2017-11-19T08:15:46.385Z,2460.00
2017-11-19T08:16:46.377Z,2084.00
2017-11-19T08:17:46.369Z,2600.00
2017-11-19T08:18:46.360Z,3744.00
2017-11-19T08:19:46.353Z,3456.00
2017-11-19T08:20:46.345Z,3308.00
2017-11-19T08:21:46.338Z,3324.00
2017-11-19T08:22:46.334Z,3584.00
2017-11-19T08:23:46.326Z,4684.00
2017-11-19T08:24:46.320Z,4888.00
2017-11-19T08:25:46.311Z,4288.00
2017-11-19T08:26:46.304Z,4516.00
2017-11-19T08:27:46.298Z,3616.00
2017-11-19T08:28:46.289Z,2812.00
2017-11-19T08:29:46.281Z,3016.00
2017-11-19T08:30:46.271Z,3740.00
2017-11-19T08:31:46.263Z,3260.00
2017-11-19T08:32:46.256Z,2812.00
2017-11-19T08:33:46.249Z,3088.00
2017-11-19T08:34:46.242Z,3008.00
2017-11-19T08:35:46.235Z,3584.00
2017-11-19T08:36:46.231Z,3244.00
2017-11-19T08:37:46.221Z,2872.00
2017-11-19T08:38:46.217Z,3016.00
2017-11-19T08:39:46.210Z,3156.00
2017-11-19T08:40:46.204Z,3268.00
2017-11-19T08:41:46.198Z,3112.00
2017-11-19T08:42:46.190Z,3108.00
2017-11-19T08:43:46.184Z,3432.00
2017-11-19T08:44:46.183Z,3612.00
2017-11-19T08:45:46.168Z,4308.00
2017-11-19T08:46:46.157Z,4356.00
2017-11-19T08:47:46.151Z,4312.00
2017-11-19T08:48:46.145Z,3952.00
2017-11-19T08:49:46.137Z,4504.00
2017-11-19T08:50:46.132Z,4540.00
2017-11-19T08:51:46.123Z,4908.00
2017-11-19T08:52:46.123Z,6516.00
2017-11-19T08:53:46.110Z,5072.00
2017-11-19T08:54:46.110Z,8324.00
2017-11-19T08:55:46.103Z,8060.00
2017-11-19T08:56:46.098Z,3248.00
2017-11-19T08:57:46.090Z,10060.00
2017-11-19T08:58:46.085Z,9952.00
2017-11-19T08:59:46.079Z,9900.00
2017-11-19T09:00:46.073Z,10264.00
2017-11-19T09:01:46.067Z,9840.00
2017-11-19T09:02:46.057Z,10244.00
2017-11-19T09:03:46.054Z,10068.00
2017-11-19T09:04:46.051Z,10052.00
2017-11-19T09:05:46.045Z,10040.00
2017-11-19T09:06:46.041Z,10336.00
2017-11-19T09:07:46.041Z,10348.00
2017-11-19T09:08:46.036Z,10388.00
2017-11-19T09:09:46.035Z,10504.00
2017-11-19T09:10:46.034Z,10656.00
2017-11-19T09:11:46.039Z,10852.00
2017-11-19T09:12:46.029Z,11108.00
2017-11-19T09:13:46.036Z,11256.00
2017-11-19T09:14:46.029Z,11276.00
2017-11-19T09:15:46.028Z,11104.00
2017-11-19T09:16:46.028Z,10712.00
2017-11-19T09:17:46.026Z,11032.00
2017-11-19T09:18:46.022Z,11276.00
2017-11-19T09:19:46.022Z,11084.00
2017-11-19T09:20:46.023Z,11540.00
2017-11-19T09:21:46.023Z,12544.00
2017-11-19T09:22:46.025Z,11720.00
2017-11-19T09:23:46.025Z,11056.00
2017-11-19T09:24:46.039Z,10884.00
2017-11-19T09:25:46.046Z,11060.00
2017-11-19T09:26:46.034Z,10236.00
2017-11-19T09:27:46.037Z,8732.00
2017-11-19T09:28:46.041Z,10808.00
2017-11-19T09:29:46.041Z,11484.00
2017-11-19T09:30:46.045Z,12076.00
2017-11-19T09:31:46.047Z,11928.00
2017-11-19T09:32:46.050Z,11520.00
2017-11-19T09:33:46.052Z,9208.00
2017-11-19T09:34:46.051Z,11148.00
2017-11-19T09:35:46.053Z,9764.00
2017-11-19T09:36:46.056Z,6192.00
2017-11-19T09:37:46.059Z,11916.00
2017-11-19T09:38:46.066Z,4960.00
2017-11-19T09:39:46.069Z,4912.00
2017-11-19T09:40:46.073Z,5096.00
2017-11-19T09:41:46.073Z,4836.00
2017-11-19T09:42:46.073Z,11524.00
2017-11-19T09:43:46.077Z,11780.00
2017-11-19T09:44:46.080Z,11868.00
2017-11-19T09:45:46.081Z,11696.00
2017-11-19T09:46:46.084Z,11928.00
2017-11-19T09:47:46.088Z,11880.00
2017-11-19T09:48:46.090Z,11768.00
2017-11-19T09:49:46.117Z,11988.00
2017-11-19T09:50:46.101Z,12008.00
2017-11-19T09:51:46.103Z,11028.00
2017-11-19T09:52:46.106Z,12272.00
2017-11-19T09:53:46.109Z,12188.00
2017-11-19T09:54:46.114Z,12180.00
2017-11-19T09:55:46.116Z,12120.00
2017-11-19T09:56:46.123Z,12164.00
2017-11-19T09:57:46.122Z,12076.00
2017-11-19T09:58:46.121Z,12344.00
2017-11-19T09:59:46.127Z,13296.00
2017-11-19T10:00:46.133Z,14228.00
2017-11-19T10:01:46.134Z,14464.00
2017-11-19T10:02:46.138Z,14032.00
2017-11-19T10:03:46.145Z,5612.00
2017-11-19T10:04:46.148Z,4668.00
2017-11-19T10:05:46.152Z,6928.00
2017-11-19T10:06:46.160Z,7260.00
2017-11-19T10:07:46.170Z,15360.00
2017-11-19T10:08:46.168Z,9072.00
2017-11-19T10:09:46.173Z,15008.00
2017-11-19T10:10:46.178Z,7908.00
2017-11-19T10:11:46.183Z,9572.00
2017-11-19T10:12:46.186Z,10784.00
2017-11-19T10:13:46.189Z,9196.00
2017-11-19T10:14:46.188Z,7136.00
2017-11-19T10:15:46.193Z,6672.00
2017-11-19T10:16:46.197Z,7760.00
2017-11-19T10:17:46.201Z,9440.00
2017-11-19T10:18:46.204Z,9484.00
2017-11-19T10:19:46.207Z,8104.00
2017-11-19T10:20:46.211Z,8736.00
2017-11-19T10:21:46.213Z,13220.00
2017-11-19T10:22:46.218Z,12092.00
2017-11-19T10:23:46.223Z,6200.00
2017-11-19T10:24:46.227Z,5456.00
2017-11-19T10:25:46.228Z,5396.00
2017-11-19T10:26:46.229Z,5712.00
2017-11-19T10:27:46.232Z,4996.00
2017-11-19T10:28:46.239Z,9652.00
2017-11-19T10:29:46.238Z,11904.00
2017-11-19T10:30:46.243Z,13016.00
2017-11-19T10:31:46.237Z,11436.00
2017-11-19T10:32:46.240Z,11004.00
2017-11-19T10:33:46.243Z,13712.00
2017-11-19T10:34:46.251Z,15904.00
2017-11-19T10:35:46.247Z,13884.00
2017-11-19T10:36:46.247Z,9156.00
2017-11-19T10:37:46.251Z,15040.00
2017-11-19T10:38:46.257Z,13436.00
2017-11-19T10:39:46.260Z,14048.00
2017-11-19T10:40:46.263Z,6736.00
2017-11-19T10:41:46.264Z,5912.00
2017-11-19T10:42:46.264Z,7144.00
2017-11-19T10:43:46.265Z,13288.00
2017-11-19T10:44:46.270Z,7872.00
2017-11-19T10:45:46.271Z,12816.00
2017-11-19T10:46:46.284Z,13016.00
2017-11-19T10:47:46.284Z,15424.00
2017-11-19T10:48:46.284Z,17344.00
2017-11-19T10:49:46.286Z,14000.00
2017-11-19T10:50:46.290Z,9676.00
2017-11-19T10:51:46.293Z,9144.00
2017-11-19T10:52:46.298Z,7308.00
2017-11-19T10:53:46.300Z,7752.00
2017-11-19T10:54:46.298Z,6996.00
2017-11-19T10:55:46.303Z,6860.00
2017-11-19T10:56:46.310Z,6396.00
2017-11-19T10:57:46.309Z,7100.00
2017-11-19T10:58:46.311Z,7332.00
2017-11-19T10:59:46.318Z,10872.00
2017-11-19T11:00:46.319Z,7532.00
2017-11-19T11:01:46.318Z,8176.00
2017-11-19T11:02:46.326Z,9700.00
2017-11-19T11:03:46.326Z,10504.00
2017-11-19T11:04:46.329Z,9176.00
2017-11-19T11:05:46.331Z,7116.00
2017-11-19T11:06:46.332Z,8864.00
2017-11-19T11:07:46.335Z,7944.00
2017-11-19T11:08:46.336Z,6540.00
2017-11-19T11:09:46.339Z,5376.00
2017-11-19T11:10:46.336Z,4096.00
2017-11-19T11:11:46.336Z,3280.00
2017-11-19T11:12:46.337Z,3200.00
2017-11-19T11:13:46.337Z,3296.00
2017-11-19T11:14:46.345Z,3392.00
2017-11-19T11:15:46.349Z,3500.00
2017-11-19T11:16:46.343Z,3548.00
2017-11-19T11:17:46.340Z,3536.00
2017-11-19T11:18:46.344Z,4208.00
2017-11-19T11:19:46.343Z,5428.00
2017-11-19T11:20:46.346Z,5828.00
2017-11-19T11:21:46.344Z,5780.00
2017-11-19T11:22:46.344Z,5688.00
2017-11-19T11:23:46.343Z,5600.00
2017-11-19T11:24:46.343Z,5552.00
2017-11-19T11:25:46.341Z,4724.00
2017-11-19T11:26:46.336Z,3820.00
2017-11-19T11:27:46.335Z,2936.00
2017-11-19T11:28:46.335Z,2480.00
2017-11-19T11:29:46.333Z,2476.00
2017-11-19T11:30:46.332Z,2488.00
2017-11-19T11:31:46.331Z,2696.00
2017-11-19T11:32:46.330Z,2832.00
2017-11-19T11:33:46.326Z,3388.00
2017-11-19T11:34:46.328Z,4284.00
2017-11-19T11:35:46.328Z,6544.00
2017-11-19T11:36:46.325Z,7000.00
2017-11-19T11:37:46.324Z,6520.00
2017-11-19T11:38:46.321Z,6004.00
2017-11-19T11:39:46.340Z,4460.00
2017-11-19T11:40:46.320Z,3912.00
2017-11-19T11:41:46.314Z,3228.00
2017-11-19T11:42:46.309Z,3804.00
2017-11-19T11:43:46.314Z,3932.00
2017-11-19T11:44:46.304Z,3428.00
2017-11-19T11:45:46.300Z,4024.00
2017-11-19T11:46:46.304Z,5480.00
2017-11-19T11:47:46.304Z,8784.00
2017-11-19T11:48:46.299Z,6916.00
2017-11-19T11:49:46.297Z,6512.00
2017-11-19T11:50:46.295Z,6984.00
2017-11-19T11:51:46.293Z,7760.00
2017-11-19T11:52:46.285Z,6012.00
2017-11-19T11:53:46.282Z,5040.00
2017-11-19T11:54:46.280Z,4500.00
2017-11-19T11:55:46.281Z,4932.00
2017-11-19T11:56:46.277Z,5144.00
2017-11-19T11:57:46.273Z,5760.00
2017-11-19T11:58:46.274Z,4720.00
2017-11-19T11:59:46.272Z,5328.00
2017-11-19T12:00:46.271Z,6568.00
2017-11-19T12:01:46.268Z,8016.00
2017-11-19T12:02:46.274Z,9048.00
2017-11-19T12:03:46.265Z,8496.00
2017-11-19T12:04:46.261Z,7164.00
2017-11-19T12:05:46.260Z,4804.00
2017-11-19T12:06:46.253Z,3016.00
2017-11-19T12:07:46.252Z,2856.00
2017-11-19T12:08:46.250Z,2840.00
2017-11-19T12:09:46.245Z,2548.00
2017-11-19T12:10:46.244Z,3080.00
2017-11-19T12:11:46.242Z,4140.00
2017-11-19T12:12:46.241Z,2460.00
2017-11-19T12:13:46.239Z,2696.00
2017-11-19T12:14:46.240Z,3676.00
2017-11-19T12:15:46.237Z,5296.00
2017-11-19T12:16:46.236Z,2792.00
2017-11-19T12:17:46.238Z,2332.00
2017-11-19T12:18:46.230Z,3144.00
2017-11-19T12:19:46.228Z,2160.00
2017-11-19T12:20:46.227Z,2676.00
2017-11-19T12:21:46.231Z,3108.00
2017-11-19T12:22:46.217Z,2592.00
2017-11-19T12:23:46.213Z,2700.00
2017-11-19T12:24:46.213Z,3876.00
2017-11-19T12:25:46.207Z,5252.00
2017-11-19T12:26:46.207Z,4964.00
2017-11-19T12:27:46.204Z,3912.00
2017-11-19T12:28:46.201Z,3660.00
2017-11-19T12:29:46.197Z,3124.00
2017-11-19T12:30:46.198Z,3696.00
2017-11-19T12:31:46.196Z,4096.00
2017-11-19T12:32:46.193Z,3164.00
2017-11-19T12:33:46.190Z,2976.00
2017-11-19T12:34:46.187Z,2740.00
2017-11-19T12:35:46.186Z,1948.00
2017-11-19T12:36:46.182Z,2016.00
2017-11-19T12:37:46.179Z,2360.00
2017-11-19T12:38:46.172Z,4060.00
2017-11-19T12:39:46.169Z,3860.00
2017-11-19T12:40:46.167Z,5732.00
2017-11-19T12:41:46.164Z,7224.00